Time,TemperatureF,DewpointF,PressureIn,WindDirection,WindDirectionDegrees,WindSpeedMPH,WindSpeedGustMPH,Humidity,HourlyPrecipIn,Conditions,Clouds,dailyrainin,SoftwareType,DateUTC
2013-06-13 00:13:00,53.6,52.0,29.84,NE,42,0.0,0.0,95,0.00,,,0.00,weatherlink.com 1.10,2013-06-13 04:13:00,
2013-06-13 00:28:00,53.2,52.0,29.84,NE,42,0.0,0.0,95,0.00,,,0.00,weatherlink.com 1.10,2013-06-13 04:28:00,
2013-06-13 00:43:00,52.7,51.0,29.84,NE,42,0.0,0.0,95,0.00,,,0.00,weatherlink.com 1.10,2013-06-13 04:43:00,
2013-06-13 01:01:00,52.2,51.0,29.84,NE,42,0.0,0.0,96,0.00,,,0.00,weatherlink.com 1.10,2013-06-13 05:01:00,
2013-06-13 01:14:00,52.4,52.0,29.83,NE,42,0.0,0.0,97,0.00,,,0.00,weatherlink.com 1.10,2013-06-13 05:14:00,
2013-06-13 01:31:00,52.4,52.0,29.83,NE,42,0.0,0.0,97,0.00,,,0.00,weatherlink.com 1.10,2013-06-13 05:31:00,
2013-06-13 01:44:00,52.5,52.0,29.82,NNE,22,1.0,3.0,97,0.00,,,0.00,weatherlink.com 1.10,2013-06-13 05:44:00,
2013-06-13 02:01:00,52.3,51.0,29.82,NNE,22,0.0,1.0,96,0.00,,,0.00,weatherlink.com 1.10,2013-06-13 06:01:00,
2013-06-13 02:14:00,52.0,51.0,29.82,NNE,22,0.0,0.0,97,0.00,,,0.00,weatherlink.com 1.10,2013-06-13 06:14:00,
2013-06-13 02:29:00,51.7,51.0,29.81,NNE,22,0.0,1.0,97,0.00,,,0.00,weatherlink.com 1.10,2013-06-13 06:29:00,
2013-06-13 02:44:00,51.8,51.0,29.81,NNE,26,0.0,1.0,97,0.00,,,0.00,weatherlink.com 1.10,2013-06-13 06:44:00,
2013-06-13 02:59:00,51.3,51.0,29.80,NNE,26,0.0,0.0,97,0.00,,,0.00,weatherlink.com 1.10,2013-06-13 06:59:00,
2013-06-13 03:15:00,51.8,51.0,29.80,NNE,24,0.0,3.0,98,0.00,,,0.00,weatherlink.com 1.10,2013-06-13 07:15:00,
2013-06-13 03:32:00,51.4,51.0,29.80,NNE,32,0.0,0.0,97,0.00,,,0.00,weatherlink.com 1.10,2013-06-13 07:32:00,
2013-06-13 03:45:00,51.4,51.0,29.79,NNE,32,0.0,0.0,97,0.00,,,0.00,weatherlink.com 1.10,2013-06-13 07:45:00,
2013-06-13 04:01:00,51.3,51.0,29.80,NNE,32,0.0,0.0,97,0.01,,,0.01,weatherlink.com 1.10,2013-06-13 08:01:00,
2013-06-13 04:15:00,51.6,51.0,29.81,NNE,32,0.0,0.0,98,0.01,,,0.01,weatherlink.com 1.10,2013-06-13 08:15:00,
2013-06-13 04:31:00,51.8,51.0,29.80,NNE,32,0.0,0.0,98,0.01,,,0.01,weatherlink.com 1.10,2013-06-13 08:31:00,
2013-06-13 04:46:00,52.1,52.0,29.79,NNE,32,0.0,0.0,98,0.01,,,0.01,weatherlink.com 1.10,2013-06-13 08:46:00,
2013-06-13 05:02:00,52.3,52.0,29.79,NNE,32,0.0,0.0,98,0.00,,,0.01,weatherlink.com 1.10,2013-06-13 09:02:00,
2013-06-13 05:15:00,52.3,52.0,29.78,NNE,32,0.0,0.0,98,0.00,,,0.01,weatherlink.com 1.10,2013-06-13 09:15:00,
2013-06-13 05:31:00,52.6,52.0,29.79,NNE,32,0.0,0.0,98,0.00,,,0.01,weatherlink.com 1.10,2013-06-13 09:31:00,
2013-06-13 05:45:00,52.8,52.0,29.80,NNE,32,0.0,0.0,98,0.00,,,0.01,weatherlink.com 1.10,2013-06-13 09:45:00,
2013-06-13 06:01:00,52.9,52.0,29.80,NNE,32,0.0,0.0,98,0.00,,,0.01,weatherlink.com 1.10,2013-06-13 10:01:00,
2013-06-13 06:16:00,52.9,52.0,29.80,NNE,32,0.0,0.0,98,0.00,,,0.01,weatherlink.com 1.10,2013-06-13 10:16:00,
2013-06-13 06:33:00,53.0,53.0,29.79,NNE,32,0.0,0.0,98,0.00,,,0.01,weatherlink.com 1.10,2013-06-13 10:33:00,
2013-06-13 06:46:00,53.1,53.0,29.79,NNE,32,0.0,0.0,98,0.00,,,0.01,weatherlink.com 1.10,2013-06-13 10:46:00,
2013-06-13 07:01:00,53.1,53.0,29.78,NNE,32,0.0,0.0,98,0.00,,,0.01,weatherlink.com 1.10,2013-06-13 11:01:00,
2013-06-13 07:16:00,53.3,53.0,29.77,NNE,32,0.0,0.0,98,0.00,,,0.01,weatherlink.com 1.10,2013-06-13 11:16:00,
2013-06-13 07:32:00,53.8,53.0,29.77,NNE,32,0.0,0.0,98,0.00,,,0.01,weatherlink.com 1.10,2013-06-13 11:32:00,
2013-06-13 07:46:00,53.9,53.0,29.76,NNE,32,0.0,0.0,98,0.00,,,0.01,weatherlink.com 1.10,2013-06-13 11:46:00,
2013-06-13 08:02:00,54.1,54.0,29.76,NNE,32,0.0,0.0,98,0.00,,,0.01,weatherlink.com 1.10,2013-06-13 12:02:00,
2013-06-13 08:17:00,54.5,54.0,29.75,NNE,32,0.0,0.0,98,0.00,,,0.01,weatherlink.com 1.10,2013-06-13 12:17:00,
2013-06-13 08:32:00,54.8,54.0,29.76,NNE,32,0.0,0.0,98,0.00,,,0.01,weatherlink.com 1.10,2013-06-13 12:32:00,
2013-06-13 08:47:00,55.1,55.0,29.77,NNE,32,0.0,0.0,99,0.00,,,0.01,weatherlink.com 1.10,2013-06-13 12:47:00,
2013-06-13 09:02:00,55.3,55.0,29.75,NW,315,0.0,0.0,99,0.01,,,0.02,weatherlink.com 1.10,2013-06-13 13:02:00,
2013-06-13 09:17:00,55.5,55.0,29.75,WSW,239,0.0,3.0,99,0.01,,,0.02,weatherlink.com 1.10,2013-06-13 13:17:00,
2013-06-13 09:32:00,55.6,55.0,29.75,West,266,0.0,4.0,99,0.01,,,0.02,weatherlink.com 1.10,2013-06-13 13:32:00,
2013-06-13 09:48:00,55.5,55.0,29.74,NNE,28,1.0,7.0,98,0.01,,,0.02,weatherlink.com 1.10,2013-06-13 13:48:00,
2013-06-13 10:02:00,55.6,55.0,29.74,NE,49,3.0,5.0,99,0.00,,,0.02,weatherlink.com 1.10,2013-06-13 14:02:00,
2013-06-13 10:17:00,55.6,55.0,29.73,NNE,24,0.0,4.0,99,0.00,,,0.02,weatherlink.com 1.10,2013-06-13 14:17:00,
2013-06-13 10:32:00,55.7,56.0,29.73,North,9,0.0,4.0,99,0.00,,,0.02,weatherlink.com 1.10,2013-06-13 14:32:00,
2013-06-13 10:48:00,55.9,56.0,29.75,ENE,72,0.0,4.0,99,0.00,,,0.02,weatherlink.com 1.10,2013-06-13 14:48:00,
2013-06-13 11:03:00,56.0,56.0,29.74,NNE,28,0.0,1.0,99,0.00,,,0.02,weatherlink.com 1.10,2013-06-13 15:03:00,
2013-06-13 11:18:00,56.3,56.0,29.73,NNE,19,0.0,3.0,99,0.00,,,0.02,weatherlink.com 1.10,2013-06-13 15:18:00,
2013-06-13 11:33:00,56.2,56.0,29.72,South,172,0.0,4.0,99,0.00,,,0.02,weatherlink.com 1.10,2013-06-13 15:33:00,
2013-06-13 11:48:00,56.2,56.0,29.70,ESE,123,0.0,7.0,99,0.00,,,0.02,weatherlink.com 1.10,2013-06-13 15:48:00,
2013-06-13 12:03:00,56.3,56.0,29.70,NNE,30,0.0,5.0,99,0.00,,,0.02,weatherlink.com 1.10,2013-06-13 16:03:00,
2013-06-13 12:18:00,56.1,56.0,29.70,South,169,0.0,5.0,99,0.00,,,0.02,weatherlink.com 1.10,2013-06-13 16:18:00,
2013-06-13 12:34:00,56.2,56.0,29.70,SSW,204,0.0,2.0,99,0.90,,,0.92,weatherlink.com 1.10,2013-06-13 16:34:00,
2013-06-13 12:49:00,56.1,56.0,29.69,ESE,110,0.0,10.0,99,0.96,,,0.98,weatherlink.com 1.10,2013-06-13 16:49:00,
2013-06-13 13:04:00,56.0,56.0,29.68,South,178,0.0,3.0,98,1.02,,,1.04,weatherlink.com 1.10,2013-06-13 17:04:00,
2013-06-13 13:19:00,56.0,56.0,29.67,North,355,0.0,0.0,99,1.06,,,1.08,weatherlink.com 1.10,2013-06-13 17:19:00,
2013-06-13 13:34:00,56.2,56.0,29.66,NE,38,0.0,3.0,99,0.19,,,1.11,weatherlink.com 1.10,2013-06-13 17:34:00,
2013-06-13 13:49:00,56.2,56.0,29.66,SE,128,0.0,2.0,99,0.13,,,1.11,weatherlink.com 1.10,2013-06-13 17:49:00,
2013-06-13 14:05:00,56.2,56.0,29.65,ENE,59,0.0,3.0,99,0.08,,,1.13,weatherlink.com 1.10,2013-06-13 18:05:00,
2013-06-13 14:19:00,56.2,56.0,29.65,ENE,75,0.0,1.0,99,0.06,,,1.15,weatherlink.com 1.10,2013-06-13 18:19:00,
2013-06-13 14:35:00,55.9,55.0,29.66,ENE,65,3.0,4.0,98,0.06,,,1.17,weatherlink.com 1.10,2013-06-13 18:35:00,
2013-06-13 14:51:00,55.9,56.0,29.66,North,360,0.0,5.0,99,0.11,,,1.23,weatherlink.com 1.10,2013-06-13 18:51:00,
2013-06-13 15:04:00,55.7,56.0,29.66,East,90,5.0,7.0,99,0.14,,,1.27,weatherlink.com 1.10,2013-06-13 19:04:00,
2013-06-13 15:21:00,55.8,56.0,29.66,ENE,61,0.0,2.0,99,0.18,,,1.33,weatherlink.com 1.10,2013-06-13 19:21:00,
2013-06-13 15:34:00,55.8,56.0,29.67,ENE,73,0.0,3.0,99,0.23,,,1.41,weatherlink.com 1.10,2013-06-13 19:34:00,
2013-06-13 15:51:00,55.6,55.0,29.67,NNW,335,0.0,11.0,99,0.22,,,1.45,weatherlink.com 1.10,2013-06-13 19:51:00,
2013-06-13 16:05:00,55.7,56.0,29.67,NE,42,1.0,4.0,99,0.23,,,1.51,weatherlink.com 1.10,2013-06-13 20:05:00,
2013-06-13 16:21:00,55.8,56.0,29.67,NE,55,0.0,5.0,99,0.21,,,1.55,weatherlink.com 1.10,2013-06-13 20:21:00,
2013-06-13 16:35:00,55.7,56.0,29.67,East,101,2.0,4.0,99,0.16,,,1.57,weatherlink.com 1.10,2013-06-13 20:35:00,
2013-06-13 16:51:00,55.8,55.0,29.67,East,79,0.0,5.0,98,0.14,,,1.59,weatherlink.com 1.10,2013-06-13 20:51:00,
2013-06-13 17:05:00,55.6,55.0,29.67,East,82,7.0,7.0,98,0.09,,,1.60,weatherlink.com 1.10,2013-06-13 21:05:00,
2013-06-13 17:22:00,55.5,55.0,29.66,NNE,26,0.0,5.0,98,0.06,,,1.61,weatherlink.com 1.10,2013-06-13 21:22:00,
2013-06-13 17:35:00,55.3,55.0,29.66,East,86,0.0,7.0,98,0.06,,,1.63,weatherlink.com 1.10,2013-06-13 21:35:00,
2013-06-13 17:52:00,55.3,55.0,29.66,NE,38,1.0,1.0,98,0.04,,,1.63,weatherlink.com 1.10,2013-06-13 21:52:00,
2013-06-13 18:06:00,55.2,55.0,29.66,ENE,77,0.0,3.0,98,0.05,,,1.65,weatherlink.com 1.10,2013-06-13 22:06:00,
2013-06-13 18:22:00,55.2,55.0,29.66,NNW,338,0.0,2.0,98,0.04,,,1.65,weatherlink.com 1.10,2013-06-13 22:22:00,
2013-06-13 18:36:00,55.3,55.0,29.67,SE,126,0.0,3.0,98,0.04,,,1.67,weatherlink.com 1.10,2013-06-13 22:36:00,
2013-06-13 18:52:00,55.2,55.0,29.67,SE,126,0.0,1.0,98,0.04,,,1.68,weatherlink.com 1.10,2013-06-13 22:52:00,
2013-06-13 19:06:00,55.2,55.0,29.67,SE,126,1.0,1.0,98,0.04,,,1.69,weatherlink.com 1.10,2013-06-13 23:06:00,
2013-06-13 19:22:00,55.2,55.0,29.67,SE,126,0.0,0.0,98,0.04,,,1.70,weatherlink.com 1.10,2013-06-13 23:22:00,
2013-06-13 19:36:00,55.1,55.0,29.67,SE,126,0.0,0.0,98,0.04,,,1.71,weatherlink.com 1.10,2013-06-13 23:36:00,
2013-06-13 19:51:00,55.0,55.0,29.68,SE,126,0.0,0.0,98,0.05,,,1.73,weatherlink.com 1.10,2013-06-13 23:51:00,
2013-06-13 20:06:00,55.0,55.0,29.68,SE,126,0.0,2.0,99,0.04,,,1.73,weatherlink.com 1.10,2013-06-14 00:06:00,
2013-06-13 20:21:00,54.8,54.0,29.68,NE,54,0.0,0.0,98,0.04,,,1.74,weatherlink.com 1.10,2013-06-14 00:21:00,
2013-06-13 20:36:00,54.7,55.0,29.68,NE,54,0.0,0.0,99,0.04,,,1.75,weatherlink.com 1.10,2013-06-14 00:36:00,
2013-06-13 20:52:00,54.7,55.0,29.68,NE,54,0.0,0.0,99,0.04,,,1.77,weatherlink.com 1.10,2013-06-14 00:52:00,
2013-06-13 21:07:00,54.8,55.0,29.68,NE,54,0.0,0.0,99,0.06,,,1.79,weatherlink.com 1.10,2013-06-14 01:07:00,
2013-06-13 21:22:00,54.8,55.0,29.68,NE,54,0.0,0.0,99,0.05,,,1.79,weatherlink.com 1.10,2013-06-14 01:22:00,
2013-06-13 21:37:00,54.6,54.0,29.68,NNE,32,0.0,1.0,99,0.06,,,1.81,weatherlink.com 1.10,2013-06-14 01:37:00,
2013-06-13 21:52:00,54.2,54.0,29.68,ESE,109,0.0,3.0,98,0.05,,,1.82,weatherlink.com 1.10,2013-06-14 01:52:00,
2013-06-13 22:07:00,54.2,54.0,29.69,ESE,109,0.0,0.0,99,0.04,,,1.83,weatherlink.com 1.10,2013-06-14 02:07:00,
2013-06-13 22:23:00,54.1,54.0,29.69,ESE,109,0.0,0.0,99,0.06,,,1.86,weatherlink.com 1.10,2013-06-14 02:23:00,
2013-06-13 22:38:00,54.0,54.0,29.69,ESE,109,0.0,0.0,99,0.08,,,1.89,weatherlink.com 1.10,2013-06-14 02:38:00,
2013-06-13 22:53:00,54.0,54.0,29.68,ESE,109,0.0,0.0,99,0.08,,,1.90,weatherlink.com 1.10,2013-06-14 02:53:00,
2013-06-13 23:08:00,53.7,54.0,29.68,ESE,109,0.0,0.0,99,0.09,,,1.92,weatherlink.com 1.10,2013-06-14 03:08:00,
2013-06-13 23:23:00,53.3,53.0,29.68,NNE,13,1.0,5.0,99,0.07,,,1.93,weatherlink.com 1.10,2013-06-14 03:23:00,
2013-06-13 23:37:00,52.6,52.0,29.69,SE,136,0.0,3.0,98,0.06,,,1.95,weatherlink.com 1.10,2013-06-14 03:37:00,
2013-06-13 23:52:00,52.5,52.0,29.69,NE,36,0.0,1.0,98,0.07,,,1.97,weatherlink.com 1.10,2013-06-14 03:52:00,